sensor_id;sensor_type;location;lat;lon;timestamp;P1;durP1;ratioP1;P2;durP2;ratioP2
52294;SDS011;38243;53.212;6.574;2023-05-19T00:01:08;3.00;;;1.00;;
52294;SDS011;38243;53.212;6.574;2023-05-19T00:03:40;3.45;;;1.20;;
52294;SDS011;38243;53.212;6.574;2023-05-19T00:06:16;3.80;;;1.23;;
52294;SDS011;38243;53.212;6.574;2023-05-19T00:08:48;3.45;;;0.90;;
52294;SDS011;38243;53.212;6.574;2023-05-19T00:11:15;3.25;;;0.82;;
52294;SDS011;38243;53.212;6.574;2023-05-19T00:13:40;3.00;;;1.10;;
52294;SDS011;38243;53.212;6.574;2023-05-19T00:16:07;3.70;;;1.13;;
52294;SDS011;38243;53.212;6.574;2023-05-19T00:18:33;2.58;;;1.08;;
52294;SDS011;38243;53.212;6.574;2023-05-19T00:20:58;3.27;;;1.27;;
52294;SDS011;38243;53.212;6.574;2023-05-19T00:23:25;4.25;;;1.08;;
52294;SDS011;38243;53.212;6.574;2023-05-19T00:25:50;3.92;;;0.95;;
52294;SDS011;38243;53.212;6.574;2023-05-19T00:28:18;2.88;;;1.10;;
52294;SDS011;38243;53.212;6.574;2023-05-19T00:30:43;3.78;;;1.02;;
52294;SDS011;38243;53.212;6.574;2023-05-19T00:33:09;2.22;;;0.90;;
52294;SDS011;38243;53.212;6.574;2023-05-19T00:35:35;1.88;;;0.80;;
52294;SDS011;38243;53.212;6.574;2023-05-19T00:38:00;3.50;;;1.17;;
52294;SDS011;38243;53.212;6.574;2023-05-19T00:40:26;4.50;;;1.15;;
52294;SDS011;38243;53.212;6.574;2023-05-19T00:42:54;4.10;;;1.20;;
52294;SDS011;38243;53.212;6.574;2023-05-19T00:45:19;3.13;;;1.10;;
52294;SDS011;38243;53.212;6.574;2023-05-19T00:47:45;3.67;;;1.00;;
52294;SDS011;38243;53.212;6.574;2023-05-19T00:50:11;3.22;;;0.90;;
52294;SDS011;38243;53.212;6.574;2023-05-19T00:52:36;3.00;;;1.00;;
52294;SDS011;38243;53.212;6.574;2023-05-19T00:55:02;3.25;;;0.90;;
52294;SDS011;38243;53.212;6.574;2023-05-19T00:57:28;2.63;;;0.95;;
52294;SDS011;38243;53.212;6.574;2023-05-19T00:59:54;3.97;;;1.20;;
52294;SDS011;38243;53.212;6.574;2023-05-19T01:02:20;3.67;;;1.10;;
52294;SDS011;38243;53.212;6.574;2023-05-19T01:04:46;1.80;;;0.70;;
52294;SDS011;38243;53.212;6.574;2023-05-19T01:07:12;2.53;;;0.90;;
52294;SDS011;38243;53.212;6.574;2023-05-19T01:09:38;2.63;;;0.97;;
52294;SDS011;38243;53.212;6.574;2023-05-19T01:12:04;3.63;;;1.10;;
52294;SDS011;38243;53.212;6.574;2023-05-19T01:14:30;3.17;;;1.02;;
52294;SDS011;38243;53.212;6.574;2023-05-19T01:17:06;1.90;;;0.90;;
52294;SDS011;38243;53.212;6.574;2023-05-19T01:19:55;5.63;;;1.00;;
52294;SDS011;38243;53.212;6.574;2023-05-19T01:31:00;3.80;;;0.97;;
52294;SDS011;38243;53.212;6.574;2023-05-19T01:33:27;2.92;;;0.90;;
52294;SDS011;38243;53.212;6.574;2023-05-19T01:35:55;4.50;;;0.90;;
52294;SDS011;38243;53.212;6.574;2023-05-19T01:38:22;5.13;;;1.25;;
52294;SDS011;38243;53.212;6.574;2023-05-19T01:40:50;3.42;;;0.93;;
52294;SDS011;38243;53.212;6.574;2023-05-19T01:43:19;3.17;;;0.90;;
52294;SDS011;38243;53.212;6.574;2023-05-19T01:45:48;2.30;;;0.90;;
52294;SDS011;38243;53.212;6.574;2023-05-19T01:48:15;3.38;;;1.00;;
52294;SDS011;38243;53.212;6.574;2023-05-19T01:50:42;2.85;;;1.00;;
52294;SDS011;38243;53.212;6.574;2023-05-19T01:53:08;2.50;;;0.70;;
52294;SDS011;38243;53.212;6.574;2023-05-19T01:55:35;3.97;;;0.90;;
52294;SDS011;38243;53.212;6.574;2023-05-19T01:58:09;2.35;;;0.98;;
52294;SDS011;38243;53.212;6.574;2023-05-19T02:00:57;2.45;;;0.70;;
52294;SDS011;38243;53.212;6.574;2023-05-19T02:11:37;2.42;;;0.80;;
52294;SDS011;38243;53.212;6.574;2023-05-19T02:14:11;1.77;;;0.60;;
52294;SDS011;38243;53.212;6.574;2023-05-19T02:16:48;2.80;;;0.90;;
52294;SDS011;38243;53.212;6.574;2023-05-19T02:19:25;3.08;;;0.90;;
52294;SDS011;38243;53.212;6.574;2023-05-19T02:21:53;2.47;;;0.73;;
52294;SDS011;38243;53.212;6.574;2023-05-19T02:24:20;2.10;;;0.85;;
52294;SDS011;38243;53.212;6.574;2023-05-19T02:26:47;2.67;;;0.90;;
52294;SDS011;38243;53.212;6.574;2023-05-19T02:29:16;2.40;;;0.80;;
52294;SDS011;38243;53.212;6.574;2023-05-19T02:31:42;2.22;;;0.70;;
52294;SDS011;38243;53.212;6.574;2023-05-19T02:34:08;1.77;;;0.70;;
52294;SDS011;38243;53.212;6.574;2023-05-19T02:36:34;2.90;;;0.75;;
52294;SDS011;38243;53.212;6.574;2023-05-19T02:39:01;3.67;;;0.80;;
52294;SDS011;38243;53.212;6.574;2023-05-19T02:41:27;2.60;;;0.80;;
52294;SDS011;38243;53.212;6.574;2023-05-19T02:43:53;3.60;;;0.90;;
52294;SDS011;38243;53.212;6.574;2023-05-19T02:46:19;1.20;;;0.60;;
52294;SDS011;38243;53.212;6.574;2023-05-19T02:48:45;1.90;;;0.63;;
52294;SDS011;38243;53.212;6.574;2023-05-19T02:51:11;5.18;;;0.95;;
52294;SDS011;38243;53.212;6.574;2023-05-19T02:53:36;2.53;;;0.90;;
52294;SDS011;38243;53.212;6.574;2023-05-19T02:56:02;1.77;;;0.85;;
52294;SDS011;38243;53.212;6.574;2023-05-19T02:58:28;1.92;;;0.80;;
52294;SDS011;38243;53.212;6.574;2023-05-19T03:00:54;2.70;;;0.80;;
52294;SDS011;38243;53.212;6.574;2023-05-19T03:03:20;2.67;;;0.80;;
52294;SDS011;38243;53.212;6.574;2023-05-19T03:05:46;3.28;;;0.90;;
52294;SDS011;38243;53.212;6.574;2023-05-19T03:08:12;2.83;;;0.90;;
52294;SDS011;38243;53.212;6.574;2023-05-19T03:10:38;2.47;;;0.80;;
52294;SDS011;38243;53.212;6.574;2023-05-19T03:13:04;3.30;;;0.75;;
52294;SDS011;38243;53.212;6.574;2023-05-19T03:15:30;1.92;;;0.65;;
52294;SDS011;38243;53.212;6.574;2023-05-19T03:17:56;2.40;;;0.85;;
52294;SDS011;38243;53.212;6.574;2023-05-19T03:20:22;3.33;;;0.95;;
52294;SDS011;38243;53.212;6.574;2023-05-19T03:22:48;2.42;;;0.80;;
52294;SDS011;38243;53.212;6.574;2023-05-19T03:25:14;2.25;;;0.65;;
52294;SDS011;38243;53.212;6.574;2023-05-19T03:27:41;3.50;;;0.82;;
52294;SDS011;38243;53.212;6.574;2023-05-19T03:30:07;2.27;;;0.70;;
52294;SDS011;38243;53.212;6.574;2023-05-19T03:32:33;3.05;;;0.70;;
52294;SDS011;38243;53.212;6.574;2023-05-19T03:35:02;2.17;;;0.80;;
52294;SDS011;38243;53.212;6.574;2023-05-19T03:37:29;2.53;;;0.63;;
52294;SDS011;38243;53.212;6.574;2023-05-19T03:39:56;1.42;;;0.50;;
52294;SDS011;38243;53.212;6.574;2023-05-19T03:42:22;2.20;;;0.67;;
52294;SDS011;38243;53.212;6.574;2023-05-19T03:44:48;2.63;;;0.80;;
52294;SDS011;38243;53.212;6.574;2023-05-19T03:47:14;2.35;;;0.80;;
52294;SDS011;38243;53.212;6.574;2023-05-19T03:49:40;2.40;;;0.97;;
52294;SDS011;38243;53.212;6.574;2023-05-19T03:52:06;2.00;;;0.70;;
52294;SDS011;38243;53.212;6.574;2023-05-19T03:54:31;3.00;;;0.70;;
52294;SDS011;38243;53.212;6.574;2023-05-19T03:56:57;1.77;;;0.80;;
52294;SDS011;38243;53.212;6.574;2023-05-19T03:59:23;1.47;;;0.60;;
52294;SDS011;38243;53.212;6.574;2023-05-19T04:01:49;3.00;;;0.80;;
52294;SDS011;38243;53.212;6.574;2023-05-19T04:04:15;2.20;;;0.85;;
52294;SDS011;38243;53.212;6.574;2023-05-19T04:06:41;2.35;;;0.60;;
52294;SDS011;38243;53.212;6.574;2023-05-19T04:09:11;2.13;;;0.63;;
52294;SDS011;38243;53.212;6.574;2023-05-19T04:11:38;2.47;;;0.77;;
52294;SDS011;38243;53.212;6.574;2023-05-19T04:14:04;3.70;;;1.10;;
52294;SDS011;38243;53.212;6.574;2023-05-19T04:16:30;1.48;;;0.80;;
52294;SDS011;38243;53.212;6.574;2023-05-19T04:18:56;1.90;;;0.82;;
52294;SDS011;38243;53.212;6.574;2023-05-19T04:21:22;1.30;;;0.60;;
52294;SDS011;38243;53.212;6.574;2023-05-19T04:23:47;1.35;;;0.70;;
52294;SDS011;38243;53.212;6.574;2023-05-19T04:26:13;1.75;;;0.65;;
52294;SDS011;38243;53.212;6.574;2023-05-19T04:28:40;3.00;;;0.70;;
52294;SDS011;38243;53.212;6.574;2023-05-19T04:31:11;2.13;;;0.70;;
52294;SDS011;38243;53.212;6.574;2023-05-19T04:33:38;2.65;;;0.80;;
52294;SDS011;38243;53.212;6.574;2023-05-19T04:36:05;2.88;;;1.10;;
52294;SDS011;38243;53.212;6.574;2023-05-19T04:38:35;3.20;;;0.80;;
52294;SDS011;38243;53.212;6.574;2023-05-19T04:41:04;1.95;;;0.75;;
52294;SDS011;38243;53.212;6.574;2023-05-19T04:43:34;2.08;;;1.02;;
52294;SDS011;38243;53.212;6.574;2023-05-19T04:46:00;1.88;;;0.77;;
52294;SDS011;38243;53.212;6.574;2023-05-19T04:48:30;1.40;;;0.70;;
52294;SDS011;38243;53.212;6.574;2023-05-19T04:50:56;1.95;;;0.70;;
52294;SDS011;38243;53.212;6.574;2023-05-19T04:53:21;1.48;;;0.57;;
52294;SDS011;38243;53.212;6.574;2023-05-19T04:55:49;2.58;;;1.00;;
52294;SDS011;38243;53.212;6.574;2023-05-19T04:58:15;2.30;;;0.80;;
52294;SDS011;38243;53.212;6.574;2023-05-19T05:00:41;1.30;;;0.80;;
52294;SDS011;38243;53.212;6.574;2023-05-19T05:03:07;1.90;;;0.83;;
52294;SDS011;38243;53.212;6.574;2023-05-19T05:05:33;1.77;;;0.65;;
52294;SDS011;38243;53.212;6.574;2023-05-19T05:07:59;1.92;;;0.70;;
52294;SDS011;38243;53.212;6.574;2023-05-19T05:10:25;2.58;;;0.90;;
52294;SDS011;38243;53.212;6.574;2023-05-19T05:12:51;3.03;;;0.97;;
52294;SDS011;38243;53.212;6.574;2023-05-19T05:15:17;1.17;;;0.50;;
52294;SDS011;38243;53.212;6.574;2023-05-19T05:17:43;1.85;;;0.80;;
52294;SDS011;38243;53.212;6.574;2023-05-19T05:20:09;2.13;;;0.85;;
52294;SDS011;38243;53.212;6.574;2023-05-19T05:22:36;2.10;;;0.80;;
52294;SDS011;38243;53.212;6.574;2023-05-19T05:25:06;1.60;;;0.60;;
52294;SDS011;38243;53.212;6.574;2023-05-19T05:27:32;2.50;;;0.90;;
52294;SDS011;38243;53.212;6.574;2023-05-19T05:29:58;1.87;;;0.67;;
52294;SDS011;38243;53.212;6.574;2023-05-19T05:32:25;2.43;;;0.90;;
52294;SDS011;38243;53.212;6.574;2023-05-19T05:34:51;2.45;;;0.90;;
52294;SDS011;38243;53.212;6.574;2023-05-19T05:37:17;1.48;;;0.70;;
52294;SDS011;38243;53.212;6.574;2023-05-19T05:39:42;2.67;;;0.83;;
52294;SDS011;38243;53.212;6.574;2023-05-19T05:42:09;1.97;;;0.93;;
52294;SDS011;38243;53.212;6.574;2023-05-19T05:44:35;1.58;;;0.80;;
52294;SDS011;38243;53.212;6.574;2023-05-19T05:47:01;2.92;;;0.88;;
52294;SDS011;38243;53.212;6.574;2023-05-19T05:49:27;1.88;;;0.90;;
52294;SDS011;38243;53.212;6.574;2023-05-19T05:51:53;3.97;;;1.20;;
52294;SDS011;38243;53.212;6.574;2023-05-19T05:54:20;2.78;;;0.98;;
52294;SDS011;38243;53.212;6.574;2023-05-19T05:56:47;2.95;;;0.90;;
52294;SDS011;38243;53.212;6.574;2023-05-19T05:59:13;2.00;;;0.80;;
52294;SDS011;38243;53.212;6.574;2023-05-19T06:01:39;3.40;;;1.20;;
52294;SDS011;38243;53.212;6.574;2023-05-19T06:04:06;2.58;;;0.90;;
52294;SDS011;38243;53.212;6.574;2023-05-19T06:06:32;3.47;;;1.08;;
52294;SDS011;38243;53.212;6.574;2023-05-19T06:08:58;3.65;;;1.00;;
52294;SDS011;38243;53.212;6.574;2023-05-19T06:11:23;2.97;;;0.90;;
52294;SDS011;38243;53.212;6.574;2023-05-19T06:13:50;2.53;;;1.00;;
52294;SDS011;38243;53.212;6.574;2023-05-19T06:16:15;3.20;;;1.10;;
52294;SDS011;38243;53.212;6.574;2023-05-19T06:18:41;2.25;;;1.00;;
52294;SDS011;38243;53.212;6.574;2023-05-19T06:21:07;3.25;;;1.20;;
52294;SDS011;38243;53.212;6.574;2023-05-19T06:23:34;2.40;;;0.98;;
52294;SDS011;38243;53.212;6.574;2023-05-19T06:26:00;3.10;;;1.02;;
52294;SDS011;38243;53.212;6.574;2023-05-19T06:28:26;3.53;;;1.20;;
52294;SDS011;38243;53.212;6.574;2023-05-19T06:30:52;2.50;;;1.00;;
52294;SDS011;38243;53.212;6.574;2023-05-19T06:33:17;1.58;;;1.10;;
52294;SDS011;38243;53.212;6.574;2023-05-19T06:35:43;2.07;;;1.00;;
52294;SDS011;38243;53.212;6.574;2023-05-19T06:38:09;3.78;;;1.30;;
52294;SDS011;38243;53.212;6.574;2023-05-19T06:40:35;2.77;;;1.03;;
52294;SDS011;38243;53.212;6.574;2023-05-19T06:43:01;3.42;;;1.30;;
52294;SDS011;38243;53.212;6.574;2023-05-19T06:45:27;2.45;;;1.30;;
52294;SDS011;38243;53.212;6.574;2023-05-19T06:47:52;2.40;;;1.07;;
52294;SDS011;38243;53.212;6.574;2023-05-19T06:50:18;3.90;;;1.25;;
52294;SDS011;38243;53.212;6.574;2023-05-19T06:52:44;2.88;;;1.00;;
52294;SDS011;38243;53.212;6.574;2023-05-19T06:55:11;3.85;;;1.42;;
52294;SDS011;38243;53.212;6.574;2023-05-19T06:57:37;2.40;;;1.30;;
52294;SDS011;38243;53.212;6.574;2023-05-19T07:00:02;2.63;;;1.10;;
52294;SDS011;38243;53.212;6.574;2023-05-19T07:02:30;2.42;;;1.10;;
52294;SDS011;38243;53.212;6.574;2023-05-19T07:04:56;3.10;;;1.13;;
52294;SDS011;38243;53.212;6.574;2023-05-19T07:07:22;3.25;;;1.10;;
52294;SDS011;38243;53.212;6.574;2023-05-19T07:09:47;3.30;;;0.90;;
52294;SDS011;38243;53.212;6.574;2023-05-19T07:12:13;2.92;;;1.30;;
52294;SDS011;38243;53.212;6.574;2023-05-19T07:14:39;4.23;;;1.10;;
52294;SDS011;38243;53.212;6.574;2023-05-19T07:17:05;3.55;;;1.10;;
52294;SDS011;38243;53.212;6.574;2023-05-19T07:19:30;2.03;;;1.13;;
52294;SDS011;38243;53.212;6.574;2023-05-19T07:21:56;3.10;;;1.10;;
52294;SDS011;38243;53.212;6.574;2023-05-19T07:24:23;2.30;;;1.02;;
52294;SDS011;38243;53.212;6.574;2023-05-19T07:26:49;2.95;;;1.30;;
52294;SDS011;38243;53.212;6.574;2023-05-19T07:29:15;2.53;;;1.00;;
52294;SDS011;38243;53.212;6.574;2023-05-19T07:31:40;3.45;;;1.00;;
52294;SDS011;38243;53.212;6.574;2023-05-19T07:34:06;2.30;;;0.90;;
52294;SDS011;38243;53.212;6.574;2023-05-19T07:36:32;2.13;;;1.00;;
52294;SDS011;38243;53.212;6.574;2023-05-19T07:38:58;3.75;;;1.05;;
52294;SDS011;38243;53.212;6.574;2023-05-19T07:41:24;2.00;;;1.00;;
52294;SDS011;38243;53.212;6.574;2023-05-19T07:43:50;1.52;;;0.90;;
52294;SDS011;38243;53.212;6.574;2023-05-19T07:46:16;3.58;;;1.20;;
52294;SDS011;38243;53.212;6.574;2023-05-19T07:48:41;2.93;;;1.00;;
52294;SDS011;38243;53.212;6.574;2023-05-19T07:51:07;2.05;;;0.82;;
52294;SDS011;38243;53.212;6.574;2023-05-19T07:53:36;1.95;;;0.90;;
52294;SDS011;38243;53.212;6.574;2023-05-19T07:56:02;2.15;;;1.00;;
52294;SDS011;38243;53.212;6.574;2023-05-19T07:58:29;2.63;;;0.93;;
52294;SDS011;38243;53.212;6.574;2023-05-19T08:00:58;2.53;;;1.00;;
52294;SDS011;38243;53.212;6.574;2023-05-19T08:03:24;2.42;;;1.13;;
52294;SDS011;38243;53.212;6.574;2023-05-19T08:05:50;2.83;;;1.30;;
52294;SDS011;38243;53.212;6.574;2023-05-19T08:08:16;2.07;;;1.00;;
52294;SDS011;38243;53.212;6.574;2023-05-19T08:10:43;3.92;;;1.10;;
52294;SDS011;38243;53.212;6.574;2023-05-19T08:13:10;4.45;;;1.15;;
52294;SDS011;38243;53.212;6.574;2023-05-19T08:15:36;3.28;;;1.20;;
52294;SDS011;38243;53.212;6.574;2023-05-19T08:18:01;4.13;;;1.35;;
52294;SDS011;38243;53.212;6.574;2023-05-19T08:20:29;3.67;;;1.33;;
52294;SDS011;38243;53.212;6.574;2023-05-19T08:22:55;3.20;;;1.20;;
52294;SDS011;38243;53.212;6.574;2023-05-19T08:25:21;3.45;;;1.23;;
52294;SDS011;38243;53.212;6.574;2023-05-19T08:27:47;3.03;;;1.15;;
52294;SDS011;38243;53.212;6.574;2023-05-19T08:30:12;3.10;;;1.38;;
52294;SDS011;38243;53.212;6.574;2023-05-19T08:32:38;3.73;;;1.17;;
52294;SDS011;38243;53.212;6.574;2023-05-19T08:35:04;3.65;;;1.20;;
52294;SDS011;38243;53.212;6.574;2023-05-19T08:37:30;2.00;;;1.13;;
52294;SDS011;38243;53.212;6.574;2023-05-19T08:39:56;2.83;;;1.50;;
52294;SDS011;38243;53.212;6.574;2023-05-19T08:42:21;3.42;;;1.30;;
52294;SDS011;38243;53.212;6.574;2023-05-19T08:44:47;3.67;;;1.10;;
52294;SDS011;38243;53.212;6.574;2023-05-19T08:47:13;3.28;;;1.30;;
52294;SDS011;38243;53.212;6.574;2023-05-19T08:49:43;3.22;;;1.25;;
52294;SDS011;38243;53.212;6.574;2023-05-19T08:52:29;2.85;;;1.10;;
52294;SDS011;38243;53.212;6.574;2023-05-19T08:57:51;3.50;;;1.10;;
52294;SDS011;38243;53.212;6.574;2023-05-19T09:00:18;3.50;;;1.50;;
52294;SDS011;38243;53.212;6.574;2023-05-19T09:02:44;2.88;;;1.48;;
52294;SDS011;38243;53.212;6.574;2023-05-19T09:05:14;2.38;;;1.33;;
52294;SDS011;38243;53.212;6.574;2023-05-19T09:07:41;2.60;;;1.10;;
52294;SDS011;38243;53.212;6.574;2023-05-19T09:10:08;2.95;;;1.20;;
52294;SDS011;38243;53.212;6.574;2023-05-19T09:12:38;2.97;;;1.00;;
52294;SDS011;38243;53.212;6.574;2023-05-19T09:15:09;2.40;;;1.20;;
52294;SDS011;38243;53.212;6.574;2023-05-19T09:17:36;3.77;;;1.30;;
52294;SDS011;38243;53.212;6.574;2023-05-19T09:20:04;2.65;;;1.30;;
52294;SDS011;38243;53.212;6.574;2023-05-19T09:22:43;1.97;;;1.13;;
52294;SDS011;38243;53.212;6.574;2023-05-19T09:25:18;2.75;;;1.20;;
52294;SDS011;38243;53.212;6.574;2023-05-19T09:27:46;2.28;;;1.02;;
52294;SDS011;38243;53.212;6.574;2023-05-19T09:30:13;1.98;;;1.10;;
52294;SDS011;38243;53.212;6.574;2023-05-19T09:32:40;4.30;;;1.30;;
52294;SDS011;38243;53.212;6.574;2023-05-19T09:35:06;3.63;;;1.27;;
52294;SDS011;38243;53.212;6.574;2023-05-19T09:37:32;2.37;;;1.00;;
52294;SDS011;38243;53.212;6.574;2023-05-19T09:39:58;2.30;;;1.10;;
52294;SDS011;38243;53.212;6.574;2023-05-19T09:42:24;2.92;;;1.08;;
52294;SDS011;38243;53.212;6.574;2023-05-19T09:45:00;2.38;;;1.10;;
52294;SDS011;38243;53.212;6.574;2023-05-19T09:47:31;2.08;;;1.10;;
52294;SDS011;38243;53.212;6.574;2023-05-19T09:50:07;2.30;;;0.90;;
52294;SDS011;38243;53.212;6.574;2023-05-19T09:52:38;2.17;;;1.27;;
52294;SDS011;38243;53.212;6.574;2023-05-19T09:55:10;3.38;;;1.50;;
52294;SDS011;38243;53.212;6.574;2023-05-19T09:57:37;6.57;;;1.50;;
52294;SDS011;38243;53.212;6.574;2023-05-19T10:00:07;1.73;;;1.10;;
52294;SDS011;38243;53.212;6.574;2023-05-19T10:02:42;7.35;;;2.00;;
52294;SDS011;38243;53.212;6.574;2023-05-19T10:05:10;10.65;;;2.10;;
52294;SDS011;38243;53.212;6.574;2023-05-19T10:07:40;5.03;;;1.63;;
52294;SDS011;38243;53.212;6.574;2023-05-19T10:10:09;5.88;;;1.70;;
52294;SDS011;38243;53.212;6.574;2023-05-19T10:12:37;5.18;;;1.42;;
52294;SDS011;38243;53.212;6.574;2023-05-19T10:15:04;4.57;;;1.30;;
52294;SDS011;38243;53.212;6.574;2023-05-19T10:17:36;4.43;;;1.45;;
52294;SDS011;38243;53.212;6.574;2023-05-19T10:20:05;3.53;;;1.47;;
52294;SDS011;38243;53.212;6.574;2023-05-19T10:22:36;5.15;;;1.30;;
52294;SDS011;38243;53.212;6.574;2023-05-19T10:25:03;3.47;;;1.50;;
52294;SDS011;38243;53.212;6.574;2023-05-19T10:27:31;4.87;;;1.60;;
52294;SDS011;38243;53.212;6.574;2023-05-19T10:30:05;7.78;;;2.00;;
52294;SDS011;38243;53.212;6.574;2023-05-19T10:32:35;3.83;;;1.30;;
52294;SDS011;38243;53.212;6.574;2023-05-19T10:37:56;3.65;;;1.70;;
52294;SDS011;38243;53.212;6.574;2023-05-19T10:40:36;4.57;;;1.35;;
52294;SDS011;38243;53.212;6.574;2023-05-19T10:43:12;4.20;;;1.50;;
52294;SDS011;38243;53.212;6.574;2023-05-19T10:45:52;3.95;;;1.30;;
52294;SDS011;38243;53.212;6.574;2023-05-19T10:48:19;3.27;;;1.30;;
52294;SDS011;38243;53.212;6.574;2023-05-19T10:50:48;4.07;;;1.30;;
52294;SDS011;38243;53.212;6.574;2023-05-19T10:53:18;3.20;;;1.25;;
52294;SDS011;38243;53.212;6.574;2023-05-19T10:55:50;3.28;;;1.27;;
52294;SDS011;38243;53.212;6.574;2023-05-19T11:01:06;3.17;;;1.10;;
52294;SDS011;38243;53.212;6.574;2023-05-19T11:03:41;3.92;;;1.33;;
52294;SDS011;38243;53.212;6.574;2023-05-19T11:06:20;4.40;;;1.50;;
52294;SDS011;38243;53.212;6.574;2023-05-19T11:09:01;9.23;;;1.83;;
52294;SDS011;38243;53.212;6.574;2023-05-19T11:11:44;2.78;;;1.00;;
52294;SDS011;38243;53.212;6.574;2023-05-19T11:14:21;2.08;;;1.25;;
52294;SDS011;38243;53.212;6.574;2023-05-19T11:16:56;4.13;;;1.13;;
52294;SDS011;38243;53.212;6.574;2023-05-19T11:19:26;3.22;;;1.15;;
52294;SDS011;38243;53.212;6.574;2023-05-19T11:22:08;3.07;;;1.03;;
52294;SDS011;38243;53.212;6.574;2023-05-19T11:24:38;3.53;;;1.30;;
52294;SDS011;38243;53.212;6.574;2023-05-19T11:29:44;3.10;;;1.10;;
52294;SDS011;38243;53.212;6.574;2023-05-19T11:32:10;7.70;;;1.20;;
52294;SDS011;38243;53.212;6.574;2023-05-19T11:34:37;4.03;;;1.20;;
52294;SDS011;38243;53.212;6.574;2023-05-19T11:37:04;3.85;;;1.20;;
52294;SDS011;38243;53.212;6.574;2023-05-19T11:39:31;3.92;;;1.35;;
52294;SDS011;38243;53.212;6.574;2023-05-19T11:41:57;4.43;;;1.42;;
52294;SDS011;38243;53.212;6.574;2023-05-19T11:44:23;3.75;;;1.30;;
52294;SDS011;38243;53.212;6.574;2023-05-19T11:46:49;3.30;;;1.30;;
52294;SDS011;38243;53.212;6.574;2023-05-19T11:49:15;3.47;;;1.30;;
52294;SDS011;38243;53.212;6.574;2023-05-19T11:51:44;3.42;;;1.20;;
52294;SDS011;38243;53.212;6.574;2023-05-19T11:54:10;4.07;;;1.15;;
52294;SDS011;38243;53.212;6.574;2023-05-19T11:56:39;2.95;;;1.30;;
52294;SDS011;38243;53.212;6.574;2023-05-19T11:59:06;3.30;;;1.45;;
52294;SDS011;38243;53.212;6.574;2023-05-19T12:01:33;4.60;;;1.20;;
52294;SDS011;38243;53.212;6.574;2023-05-19T12:03:59;2.15;;;1.17;;
52294;SDS011;38243;53.212;6.574;2023-05-19T12:06:26;2.88;;;1.40;;
52294;SDS011;38243;53.212;6.574;2023-05-19T12:08:53;2.22;;;1.10;;
52294;SDS011;38243;53.212;6.574;2023-05-19T12:11:19;2.50;;;1.10;;
52294;SDS011;38243;53.212;6.574;2023-05-19T12:13:45;2.53;;;1.05;;
52294;SDS011;38243;53.212;6.574;2023-05-19T12:16:12;2.97;;;1.27;;
52294;SDS011;38243;53.212;6.574;2023-05-19T12:18:38;5.38;;;1.13;;
52294;SDS011;38243;53.212;6.574;2023-05-19T12:21:06;4.18;;;1.38;;
52294;SDS011;38243;53.212;6.574;2023-05-19T12:23:32;3.07;;;1.00;;
52294;SDS011;38243;53.212;6.574;2023-05-19T12:25:59;4.25;;;1.10;;
52294;SDS011;38243;53.212;6.574;2023-05-19T12:28:28;5.80;;;1.25;;
52294;SDS011;38243;53.212;6.574;2023-05-19T12:30:55;4.93;;;1.27;;
52294;SDS011;38243;53.212;6.574;2023-05-19T12:33:22;3.43;;;1.10;;
52294;SDS011;38243;53.212;6.574;2023-05-19T12:35:49;4.00;;;1.25;;
52294;SDS011;38243;53.212;6.574;2023-05-19T12:38:15;6.72;;;1.40;;
52294;SDS011;38243;53.212;6.574;2023-05-19T12:40:43;2.58;;;1.02;;
52294;SDS011;38243;53.212;6.574;2023-05-19T12:43:17;3.15;;;1.20;;
52294;SDS011;38243;53.212;6.574;2023-05-19T12:45:47;3.65;;;1.25;;
52294;SDS011;38243;53.212;6.574;2023-05-19T12:48:13;3.40;;;1.20;;
52294;SDS011;38243;53.212;6.574;2023-05-19T12:50:40;2.53;;;0.90;;
52294;SDS011;38243;53.212;6.574;2023-05-19T12:53:12;4.13;;;1.30;;
52294;SDS011;38243;53.212;6.574;2023-05-19T12:55:39;3.20;;;1.00;;
52294;SDS011;38243;53.212;6.574;2023-05-19T12:58:08;2.17;;;0.90;;
52294;SDS011;38243;53.212;6.574;2023-05-19T13:00:39;2.03;;;0.93;;
52294;SDS011;38243;53.212;6.574;2023-05-19T13:03:15;2.42;;;1.10;;
52294;SDS011;38243;53.212;6.574;2023-05-19T13:05:46;3.47;;;1.02;;
52294;SDS011;38243;53.212;6.574;2023-05-19T13:08:18;3.72;;;1.10;;
52294;SDS011;38243;53.212;6.574;2023-05-19T13:10:46;2.90;;;1.15;;
52294;SDS011;38243;53.212;6.574;2023-05-19T13:13:13;2.33;;;0.98;;
52294;SDS011;38243;53.212;6.574;2023-05-19T13:15:40;1.90;;;1.00;;
52294;SDS011;38243;53.212;6.574;2023-05-19T13:18:09;2.47;;;1.00;;
52294;SDS011;38243;53.212;6.574;2023-05-19T13:20:36;1.85;;;0.88;;
52294;SDS011;38243;53.212;6.574;2023-05-19T13:23:03;2.45;;;0.93;;
52294;SDS011;38243;53.212;6.574;2023-05-19T13:25:30;2.53;;;1.00;;
52294;SDS011;38243;53.212;6.574;2023-05-19T13:27:58;1.98;;;0.77;;
52294;SDS011;38243;53.212;6.574;2023-05-19T13:30:25;2.45;;;0.98;;
52294;SDS011;38243;53.212;6.574;2023-05-19T13:32:52;3.40;;;1.10;;
52294;SDS011;38243;53.212;6.574;2023-05-19T13:35:18;2.40;;;1.00;;
52294;SDS011;38243;53.212;6.574;2023-05-19T13:37:44;2.47;;;0.95;;
52294;SDS011;38243;53.212;6.574;2023-05-19T13:40:10;3.03;;;1.10;;
52294;SDS011;38243;53.212;6.574;2023-05-19T13:42:37;2.42;;;1.17;;
52294;SDS011;38243;53.212;6.574;2023-05-19T13:45:03;2.45;;;1.17;;
52294;SDS011;38243;53.212;6.574;2023-05-19T13:47:29;2.80;;;0.93;;
52294;SDS011;38243;53.212;6.574;2023-05-19T13:49:55;2.47;;;1.00;;
52294;SDS011;38243;53.212;6.574;2023-05-19T13:52:21;3.90;;;1.00;;
52294;SDS011;38243;53.212;6.574;2023-05-19T13:54:47;3.85;;;1.15;;
52294;SDS011;38243;53.212;6.574;2023-05-19T13:57:13;3.53;;;1.00;;
52294;SDS011;38243;53.212;6.574;2023-05-19T13:59:40;2.75;;;1.00;;
52294;SDS011;38243;53.212;6.574;2023-05-19T14:02:06;4.50;;;1.15;;
52294;SDS011;38243;53.212;6.574;2023-05-19T14:04:35;3.53;;;1.27;;
52294;SDS011;38243;53.212;6.574;2023-05-19T14:07:05;3.83;;;1.15;;
52294;SDS011;38243;53.212;6.574;2023-05-19T14:09:31;5.50;;;1.10;;
52294;SDS011;38243;53.212;6.574;2023-05-19T14:11:57;4.38;;;1.27;;
52294;SDS011;38243;53.212;6.574;2023-05-19T14:14:23;3.20;;;1.10;;
52294;SDS011;38243;53.212;6.574;2023-05-19T14:16:49;2.53;;;0.90;;
52294;SDS011;38243;53.212;6.574;2023-05-19T14:19:15;3.47;;;1.27;;
52294;SDS011;38243;53.212;6.574;2023-05-19T14:21:41;1.90;;;1.10;;
52294;SDS011;38243;53.212;6.574;2023-05-19T14:24:07;4.60;;;1.48;;
52294;SDS011;38243;53.212;6.574;2023-05-19T14:26:32;2.80;;;0.90;;
52294;SDS011;38243;53.212;6.574;2023-05-19T14:28:58;2.75;;;1.10;;
52294;SDS011;38243;53.212;6.574;2023-05-19T14:31:24;3.17;;;1.00;;
52294;SDS011;38243;53.212;6.574;2023-05-19T14:33:50;4.33;;;1.40;;
52294;SDS011;38243;53.212;6.574;2023-05-19T14:36:16;1.75;;;0.82;;
52294;SDS011;38243;53.212;6.574;2023-05-19T14:38:42;4.13;;;1.40;;
52294;SDS011;38243;53.212;6.574;2023-05-19T14:41:08;2.27;;;1.03;;
52294;SDS011;38243;53.212;6.574;2023-05-19T14:43:33;3.42;;;1.08;;
52294;SDS011;38243;53.212;6.574;2023-05-19T14:45:59;4.20;;;1.20;;
52294;SDS011;38243;53.212;6.574;2023-05-19T14:48:25;3.40;;;1.10;;
52294;SDS011;38243;53.212;6.574;2023-05-19T14:50:51;2.80;;;1.33;;
52294;SDS011;38243;53.212;6.574;2023-05-19T14:53:17;2.78;;;1.20;;
52294;SDS011;38243;53.212;6.574;2023-05-19T14:55:43;2.20;;;1.10;;
52294;SDS011;38243;53.212;6.574;2023-05-19T14:58:11;2.78;;;1.20;;
52294;SDS011;38243;53.212;6.574;2023-05-19T15:00:37;3.20;;;1.20;;
52294;SDS011;38243;53.212;6.574;2023-05-19T15:03:03;4.00;;;1.40;;
52294;SDS011;38243;53.212;6.574;2023-05-19T15:05:29;2.83;;;1.15;;
52294;SDS011;38243;53.212;6.574;2023-05-19T15:07:55;3.87;;;1.20;;
52294;SDS011;38243;53.212;6.574;2023-05-19T15:10:20;3.13;;;1.10;;
52294;SDS011;38243;53.212;6.574;2023-05-19T15:12:46;3.63;;;1.23;;
52294;SDS011;38243;53.212;6.574;2023-05-19T15:15:12;3.40;;;1.05;;
52294;SDS011;38243;53.212;6.574;2023-05-19T15:17:40;2.67;;;1.10;;